KAVL

Asheville Regional Airport

Asheville, North Carolina, USA
METAR KAVL 260354Z 14003KT 4SM -RA BR OVC014 20/19 A3006 RMK AO2 RAB14 SLP154 P0000 T02000189
Observed Flight Rules
May-26 @ 03:54 UTC (31 minutes ago) Marginal Visual Flight Rules
Wind Visibility Clouds Conditions
140° at 3 knots 4 miles
  • Overcast at 1,400' AGL
  • Light Rain
  • Mist
Temperatures Readings Precipitation
Current 20°C / 68°F
Dewpoint 19°C / 66°F
Humidity 94%
Altimeter 30.06" Hg
Pressure 1015.4 hPa
Elevation 670
Current Rain 0.005
METAR KAVL 260354Z 14003KT 4SM -RA BR OVC014 20/19 A3006 RMK AO2 RAB14 SLP154 P0000 T02000189
Observed Flight Rules
May-26 @ 03:54 UTC
(31 minutes ago)
MVFR
Wind Visibility
140° at 3 knots 4 miles
Clouds
  • Overcast at 1,400' AGL
Conditions
  • Light Rain
  • Mist
Temperature Dewpoint
20°C / 68°F 19°C / 66°F
Humidity Altimeter Pressure
94% 30.06" Hg 1015.4 hPa
Current Rain
0.005